Terminal Aerodrome Forecast
Issued by NWS

Home | Current Version | Previous Version | Text Only | Print | Product List | Glossary On
Versions: 1 2 3 4 5 6 7 8 9 10 11 12
000
FTUS44 KEPZ 241100
TAFTCS
TAF
KTCS 241131Z 2412/2512 30006KT P6SM FEW250
     FM241900 19009KT P6SM FEW060 SCT250
     FM250400 30007KT P6SM FEW250=

USA.gov is the U.S. government's official web portal to all federal, state and local government web resources and services.